17 de agosto de 2022

Hora Código Clima Temp. Visibilidade Tecto Vento METAR/SPECI
13:20
V
27 °C 10 km+ 10.000 ft 360° 360° 3 kt METAR ETHL 171120Z 36003KT 9999 FEW060 BKN100 27/12 Q1013 BLU BLU
12:20
V
25 °C 10 km+ 10.000 ft 060° 060° 2 kt METAR ETHL 171020Z 06002KT 9999 BKN100 SCT290 25/12 Q1013 BLU BLU
11:20
V
23 °C 10 km+ 11.000 ft Var Var 2 kt METAR ETHL 170920Z VRB02KT 9999 BKN110 BKN300 23/12 Q1013 BLU BLU+ TEMPO BLU
10:20
V
22 °C 10 km+ 30.000 ft Var Var 2 kt METAR ETHL 170820Z VRB02KT 9999 FEW120 BKN300 22/12 Q1012 BLU+BLU+
09:20
V
21 °C 10 km+ 28.000 ft 080° 080° 4 kt METAR ETHL 170720Z 08004KT 9999 FEW120 BKN280 21/12 Q1012 BLU+BLU+
08:20
V
17 °C 10 km+ 20.000 ft 220° 220° 5 kt METAR ETHL 170620Z 22005KT 9999 FEW090 BKN200 17/12 Q1013 BLU+BLU
07:20
V
17 °C 10 km+ 20.000 ft Var Var 1 kt METAR ETHL 170520Z VRB01KT 9999 SCT110 BKN200 17/12 Q1012 BLU+BLU
06:20
V
14 °C 10 km+ 11.000 ft 250° 250° 1 kt METAR ETHL 170420Z 25001KT 9999 BKN110 BKN200 14/11 Q1011 BLU BLU
05:20
V
15 °C 10 km+ - 340° 340° 2 kt METAR ETHL 170320Z AUTO 34002KT 9999 // ////// 15/11 Q1011 ///
04:20
V
15 °C 10 km+ - 040° 040° 4 kt METAR ETHL 170220Z AUTO 04004KT 9999 // ////// 15/12 Q1011 ///
03:20
V
15 °C 10 km+ - 030° 030° 2 kt METAR ETHL 170120Z AUTO 03002KT 9999 // ////// 15/11 Q1011 ///
02:20
V
16 °C 8 km - 330° 330° 2 kt METAR ETHL 170020Z AUTO 33002KT 8000 // ////// 16/11 Q1011 ///
01:20
V
17 °C 9 km - 110° 110° 2 kt METAR ETHL 162320Z AUTO 11002KT 9000 // ////// 17/12 Q1012 ///
00:20
V
17 °C 9 km - 030° 030° 1 kt METAR ETHL 162220Z AUTO 03001KT 9000 // ////// 17/11 Q1012 ///

16 de agosto de 2022

Hora Código Clima Temp. Visibilidade Tecto Vento METAR/SPECI
23:20
V
21 °C 10 km+ - 110° 110° 1 kt METAR ETHL 162120Z 11001KT 9999 21/10 Q1012 BLU+
22:20
V
21 °C 10 km+ - 100° 100° 2 kt METAR ETHL 162020Z 10002KT 9999 21/11 Q1012 BLU+
21:20
V
23 °C 10 km+ - 100° 100° 2 kt METAR ETHL 161920Z 10002KT 9999 FEW050 23/10 Q1011 BLU+
20:20
V
25 °C 10 km+ - 030° 030° 1 kt METAR ETHL 161820Z 03001KT 9999 FEW060 25/10 Q1011 BLU+
19:20
V
27 °C 10 km+ - 200° 200° 2 kt METAR ETHL 161720Z 20002KT 9999 FEW060 27/09 Q1011 BLU+
18:20
V
27 °C 10 km+ - 210° 210° 2 kt METAR ETHL 161620Z 21002KT 9999 FEW060 27/10 Q1011 BLU+
17:20
V
27 °C 10 km+ - 240° 240° 6 kt METAR ETHL 161520Z 24006KT 9999 FEW060 27/09 Q1011 BLU+
17:00
V
27 °C 10 km+ - 140° 140° 3 kt METAR ETHL 161500Z 14003KT 9999 FEW060 27/10 Q1011 BLU+FCST CNL
16:20
V
27 °C 10 km+ - 220° 220° 6 kt METAR ETHL 161420Z 22006KT 9999 FEW060 27/10 Q1011 BLU+BLU+
15:20
V
27 °C 10 km+ - 240° 240° 6 kt METAR ETHL 161320Z 24006KT 9999 FEW060 27/10 Q1012 BLU+BLU+
14:20
V
26 °C 10 km+ - 190° 190° 5 kt METAR ETHL 161220Z 19005KT 9999 SCT050 26/10 Q1012 BLU+BLU+
13:20
V
25 °C 10 km+ - 260° 260° 4 kt METAR ETHL 161120Z 26004KT 9999 SCT050 25/11 Q1012 BLU+BLU+
12:20
V
24 °C 10 km+ - 160° 160° 2 kt METAR ETHL 161020Z 16002KT 9999 FEW040 24/12 Q1012 BLU+BLU+
11:20
V
22 °C 10 km+ - 260° 260° 5 kt METAR ETHL 160920Z 26005KT 9999 FEW040 22/12 Q1012 BLU+BLU+
10:20
V
21 °C 10 km+ - 200° 200° 3 kt METAR ETHL 160820Z 20003KT 9999 FEW040 21/13 Q1012 BLU+BLU+
09:20
V
18 °C 10 km+ - Var Var 2 kt METAR ETHL 160720Z VRB02KT 9999 FEW030 18/13 Q1012 BLU+BLU+
08:20
V
16 °C 10 km+ - 260° 260° 4 kt METAR ETHL 160620Z 26004KT 9999 FEW050 16/12 Q1012 BLU+BLU+
07:20
V
15 °C 10 km+ - Var 000° 0 kt METAR ETHL 160520Z 00000KT 9999 FEW050 SCT080 15/12 Q1012 BLU+BLU+
06:20
V
12 °C 10 km+ - 240° 240° 1 kt METAR ETHL 160420Z 24001KT 9999 FEW060 12/11 Q1011 BLU+
05:20
V
13 °C 10 km+ - 220° 220° 2 kt METAR ETHL 160320Z 22002KT 9999 FEW060 13/11 Q1011 BLU+
04:20
V
13 °C 10 km+ - 230° 230° 1 kt METAR ETHL 160220Z 23001KT 9999 FEW060 13/11 Q1012 BLU+BLU+
03:20
V
14 °C 10 km+ - Var Var 1 kt METAR ETHL 160120Z VRB01KT 9999 FEW060 SCT240 14/11 Q1012 BLU+BLU+
02:20
V
14 °C 10 km+ - 220° 220° 3 kt METAR ETHL 160020Z AUTO 22003KT 9999 // ////// 14/12 Q1012 ///
01:20
V
15 °C 10 km+ - 230° 230° 4 kt METAR ETHL 152320Z AUTO 23004KT 9999 // ////// 15/13 Q1011 ///
00:20
V
15 °C 10 km+ - 240° 240° 2 kt METAR ETHL 152220Z AUTO 24002KT 9999 // ////// 15/13 Q1012 ///

15 de agosto de 2022

Hora Código Clima Temp. Visibilidade Tecto Vento METAR/SPECI
23:20
V
16 °C 10 km+ - 240° 240° 4 kt METAR ETHL 152120Z 24004KT 9999 FEW060 16/13 Q1012 BLU+
22:20
V
16 °C 10 km+ 22.000 ft 250° 250° 5 kt METAR ETHL 152020Z 25005KT 9999 FEW070 BKN220 16/13 Q1011 BLU+
21:20
V
17 °C 10 km+ 20.000 ft 250° 250° 8 kt METAR ETHL 151920Z 25008KT 9999 FEW140 BKN200 17/13 Q1011 BLU+
20:20
V
18 °C 10 km+ 14.000 ft 230° 230° 10 kt METAR ETHL 151820Z 23010KT 9999 FEW060 BKN140 BKN240 18/12 Q1010 BLU
19:20
V
20 °C 10 km+ 10.000 ft 230° 230° 7 kt METAR ETHL 151720Z 23007KT 9999 FEW030CB SCT060 BKN100 20/12 Q1010 BLU
18:20
V
20 °C 10 km+ 13.000 ft 300° 300° 4 - 14 kt METAR ETHL 151620Z 30004G14KT 9999 FEW030CB SCT060 BKN130 20/12 Q1009 BLU
17:20
V
25 °C 10 km+ 6.000 ft 320° 320° 4 kt METAR ETHL 151520Z 32004KT 9999 VCSH FEW030CB BKN060 25/09 Q1007 BLU
17:01
V
26 °C 10 km+ - 250° 250° 4 kt METAR ETHL 151501Z 25004KT 9999 VCSH FEW030CB SCT040 26/10 Q1007 BLU+FCST CNL
16:20
V
26 °C 10 km+ - 230° 230° 6 kt METAR ETHL 151420Z 23006KT 9999 VCSH FEW030CB SCT036 26/10 Q1007 BLU+BLU+
15:20
V
26 °C 10 km+ - 210° 210° 7 kt METAR ETHL 151320Z 21007KT 9999 SCT036 26/10 Q1007 BLU+BLU+
Dados mais antigos

Nós e terceiros acompanhamos seu comportamento na internet em nosso site com cookies. Se você continuar, nós assumimos que você concorda com nossa política de cookies. Saiba mais